Time;durP1;ratioP1;P1;durP2;ratioP2;P2;SDS_P1;SDS_P2;PMS_P1;PMS_P2;Temp;Humidity;BMP_temperature;BMP_pressure;BME280_temperature;BME280_humidity;BME280_pressure;Samples;Min_cycle;Max_cycle;Signal;HPM_P1;HPM_P2
2022/06/22 00:02:36;;;;;;;;;10.75;10.75;;;;;-143.57;100.00;65101.44;5097982;27;45299;-42
2022/06/22 00:05:06;;;;;;;;;11.75;10.00;;;;;-143.57;100.00;65101.44;5097985;27;45225;-41
2022/06/22 00:07:38;;;;;;;;;9.25;9.25;;;;;-143.57;100.00;65101.44;5078780;27;45548;-44
2022/06/22 00:10:03;;;;;;;;;12.40;11.40;;;;;-143.57;100.00;65101.44;5097686;27;45385;-42
2022/06/22 00:12:31;;;;;;;;;10.50;10.50;;;;;-143.57;100.00;65101.44;5097735;27;45527;-43
2022/06/22 00:14:59;;;;;;;;;10.25;10.25;;;;;-143.57;100.00;65101.44;5097689;27;45306;-48
2022/06/22 00:17:38;;;;;;;;;11.00;9.00;;;;;-143.57;100.00;65101.44;5097313;27;47280;-43
2022/06/22 00:20:21;;;;;;;;;12.25;12.00;;;;;-143.57;100.00;65101.44;5097605;27;45409;-50
2022/06/22 00:23:22;;;;;;;;;13.50;11.00;;;;;-143.57;100.00;65101.44;5097429;27;45224;-46
2022/06/22 00:25:48;;;;;;;;;15.50;11.75;;;;;-143.57;100.00;65101.44;5097784;27;45364;-44
2022/06/22 00:28:27;;;;;;;;;13.00;11.00;;;;;-143.57;100.00;65101.44;5097232;27;46309;-44
2022/06/22 00:31:13;;;;;;;;;14.25;12.25;;;;;-143.57;100.00;65101.44;5097213;27;45523;-40
2022/06/22 00:33:39;;;;;;;;;13.00;11.00;;;;;-143.57;100.00;65101.44;5097446;27;45413;-49
2022/06/22 00:36:07;;;;;;;;;15.00;13.00;;;;;-143.57;100.00;65101.44;5097513;27;45399;-47
2022/06/22 00:38:32;;;;;;;;;12.25;11.50;;;;;-143.57;100.00;65101.44;5097036;27;46398;-42
2022/06/22 00:41:22;;;;;;;;;11.00;11.00;;;;;-143.57;100.00;65101.44;5097212;27;45474;-46
2022/06/22 00:43:48;;;;;;;;;11.50;11.25;;;;;-143.57;100.00;65101.44;5097188;27;45484;-43
2022/06/22 00:46:18;;;;;;;;;12.50;11.00;;;;;-143.57;100.00;65101.44;5100839;27;45474;-44
2022/06/22 00:48:46;;;;;;;;;11.25;9.00;;;;;-143.57;100.00;65101.44;5100447;27;46443;-44
2022/06/22 00:51:26;;;;;;;;;10.50;9.00;;;;;-143.57;100.00;65101.44;5100811;27;45410;-41
2022/06/22 00:54:00;;;;;;;;;10.00;10.00;;;;;-143.57;100.00;65101.44;5100913;27;45429;-48
2022/06/22 00:56:37;;;;;;;;;16.00;12.00;;;;;-143.57;100.00;65101.44;5100924;27;45338;-42
2022/06/22 00:59:28;;;;;;;;;13.25;10.50;;;;;-143.57;100.00;65101.44;5100140;27;45734;-43
2022/06/22 01:01:59;;;;;;;;;12.00;10.25;;;;;-143.57;100.00;65101.44;5100689;27;45469;-42
2022/06/22 01:04:46;;;;;;;;;12.50;11.00;;;;;-143.57;100.00;65101.44;5100660;27;45307;-42
2022/06/22 01:07:22;;;;;;;;;12.25;12.25;;;;;-143.57;100.00;65101.44;5100867;27;45319;-47
2022/06/22 01:10:04;;;;;;;;;17.25;11.50;;;;;-143.57;100.00;65101.44;5100345;27;46333;-43
2022/06/22 01:12:37;;;;;;;;;13.25;11.75;;;;;-143.57;100.00;65101.44;5100515;27;45461;-48
2022/06/22 01:15:12;;;;;;;;;15.50;13.25;;;;;-143.57;100.00;65101.44;5100326;27;45456;-47
2022/06/22 01:18:04;;;;;;;;;18.75;12.25;;;;;-143.57;100.00;65101.44;5100544;27;45443;-45
2022/06/22 01:20:44;;;;;;;;;14.75;10.25;;;;;-143.57;100.00;65101.44;5100158;27;46236;-48
2022/06/22 01:23:12;;;;;;;;;12.25;10.75;;;;;-143.57;100.00;65101.44;5099976;27;45262;-42
2022/06/22 01:25:55;;;;;;;;;12.50;11.25;;;;;-143.57;100.00;65101.44;5100453;27;45309;-47
2022/06/22 01:28:21;;;;;;;;;11.75;11.25;;;;;-143.57;100.00;65101.44;5100613;27;45231;-47
2022/06/22 01:30:54;;;;;;;;;13.00;12.00;;;;;-143.57;100.00;65101.44;5099755;27;46615;-42
2022/06/22 01:33:41;;;;;;;;;10.50;9.50;;;;;-143.57;100.00;65101.44;5099893;27;45353;-49
2022/06/22 01:36:22;;;;;;;;;19.00;13.25;;;;;-143.57;100.00;65101.44;5100260;27;45267;-41
2022/06/22 01:38:48;;;;;;;;;13.00;11.00;;;;;-143.57;100.00;65101.44;5100423;27;45397;-41
2022/06/22 01:41:37;;;;;;;;;13.00;11.25;;;;;-143.57;100.00;65101.44;5099990;27;45649;-44
2022/06/22 01:44:25;;;;;;;;;15.00;13.00;;;;;-143.57;100.00;65101.44;5099754;27;45260;-43
2022/06/22 01:46:50;;;;;;;;;13.25;12.75;;;;;-143.57;100.00;65101.44;5099302;27;45414;-45
2022/06/22 01:49:24;;;;;;;;;12.50;12.50;;;;;-143.57;100.00;65101.44;5100069;27;45429;-44
2022/06/22 01:52:06;;;;;;;;;13.75;10.50;;;;;-143.57;100.00;65101.44;5099919;27;46098;-44
2022/06/22 01:54:37;;;;;;;;;14.50;12.25;;;;;-143.57;100.00;65101.44;5099966;27;45326;-45
2022/06/22 01:57:12;;;;;;;;;12.50;12.50;;;;;-143.57;100.00;65101.44;5099298;27;45276;-49
2022/06/22 01:59:44;;;;;;;;;13.75;13.75;;;;;-143.57;100.00;65101.44;5099942;27;45335;-44
2022/06/22 02:02:15;;;;;;;;;14.00;10.25;;;;;-143.57;100.00;65101.44;5099645;27;45369;-44
2022/06/22 02:04:52;;;;;;;;;13.75;13.50;;;;;-143.57;100.00;65101.44;5099448;27;45261;-44
2022/06/22 02:10:12;;;;;;;;;13.75;11.25;;;;;-143.57;100.00;65101.44;5099674;27;45318;-47
2022/06/22 02:12:50;;;;;;;;;17.00;14.00;;;;;-143.57;100.00;65101.44;5099295;27;46313;-40
2022/06/22 02:15:40;;;;;;;;;19.00;13.25;;;;;-143.57;100.00;65101.44;5099426;27;45358;-43
2022/06/22 02:18:28;;;;;;;;;18.50;13.25;;;;;-143.57;100.00;65101.44;5080959;27;45420;-42
2022/06/22 02:20:53;;;;;;;;;15.75;14.25;;;;;-143.57;100.00;65101.44;5099597;27;45493;-49
2022/06/22 02:23:30;;;;;;;;;13.00;13.00;;;;;-143.57;100.00;65101.44;5098979;27;46176;-49
2022/06/22 02:26:14;;;;;;;;;11.75;11.75;;;;;-143.57;100.00;65101.44;5099115;27;45352;-42
2022/06/22 02:28:41;;;;;;;;;10.25;10.00;;;;;-143.57;100.00;65101.44;5099329;27;45221;-47
2022/06/22 02:31:07;;;;;;;;;15.75;13.75;;;;;-143.57;100.00;65101.44;5099445;27;45520;-45
2022/06/22 02:33:35;;;;;;;;;15.75;13.75;;;;;-143.57;100.00;65101.44;5099045;27;46545;-45
2022/06/22 02:36:02;;;;;;;;;13.25;11.00;;;;;-143.57;100.00;65101.44;5098925;27;45244;-45
2022/06/22 02:38:27;;;;;;;;;17.25;12.50;;;;;-143.57;100.00;65101.44;5099413;27;45295;-46
2022/06/22 02:46:32;;;;;;;;;16.50;13.25;;;;;-143.57;100.00;65101.44;5098848;27;45358;-41
2022/06/22 02:49:04;;;;;;;;;14.75;13.00;;;;;-143.57;100.00;65101.44;5099030;27;45353;-43
2022/06/22 02:51:36;;;;;;;;;14.00;13.25;;;;;-143.57;100.00;65101.44;5080851;27;45494;-45
2022/06/22 02:54:06;;;;;;;;;17.50;12.50;;;;;-143.57;100.00;65101.44;5114559;27;45705;-47
2022/06/22 02:56:37;;;;;;;;;14.50;13.00;;;;;-143.57;100.00;65101.44;5098679;27;45167;-50
2022/06/22 02:59:03;;;;;;;;;12.00;11.50;;;;;-143.57;100.00;65101.44;5098867;27;45218;-47
2022/06/22 03:01:33;;;;;;;;;13.75;13.50;;;;;-143.57;100.00;65101.44;5098713;27;45485;-43
2022/06/22 03:04:06;;;;;;;;;17.00;12.00;;;;;-143.57;100.00;65101.44;5098513;27;46849;-44
2022/06/22 03:06:35;;;;;;;;;17.75;15.00;;;;;-143.57;100.00;65101.44;5098357;27;45504;-45
2022/06/22 03:09:04;;;;;;;;;11.25;11.25;;;;;-143.57;100.00;65101.44;5098347;27;45313;-44
2022/06/22 03:11:32;;;;;;;;;17.25;13.00;;;;;-143.57;100.00;65101.44;5098806;27;45304;-49
2022/06/22 03:14:32;;;;;;;;;15.50;13.25;;;;;-143.57;100.00;65101.44;5098508;27;47227;-46
2022/06/22 03:17:09;;;;;;;;;17.00;12.25;;;;;-143.57;100.00;65101.44;5035201;28;45450;-42
2022/06/22 03:19:56;;;;;;;;;17.75;13.50;;;;;-143.57;100.00;65101.44;5035644;28;45399;-46
2022/06/22 03:22:32;;;;;;;;;13.00;13.00;;;;;-143.57;100.00;65101.44;5035616;28;45411;-47
2022/06/22 03:25:11;;;;;;;;;14.50;14.00;;;;;-143.57;100.00;65101.44;5035323;28;45307;-44
2022/06/22 03:27:41;;;;;;;;;12.75;12.75;;;;;-143.57;100.00;65101.44;5035177;28;45376;-43
2022/06/22 03:30:13;;;;;;;;;18.50;15.25;;;;;-143.57;100.00;65101.44;5035278;28;45327;-45
2022/06/22 03:32:57;;;;;;;;;16.75;13.75;;;;;-143.57;100.00;65101.44;5035753;28;45428;-45
2022/06/22 03:35:38;;;;;;;;;16.00;13.50;;;;;-143.57;100.00;65101.44;5035237;28;46323;-45
2022/06/22 03:38:12;;;;;;;;;16.00;13.50;;;;;-143.57;100.00;65101.44;5035140;28;45798;-50
2022/06/22 03:40:52;;;;;;;;;14.00;12.75;;;;;-143.57;100.00;65101.44;5035345;28;45225;-46
2022/06/22 03:43:44;;;;;;;;;16.00;13.75;;;;;-143.57;100.00;65101.44;5035480;28;45339;-45
2022/06/22 03:46:16;;;;;;;;;16.00;14.00;;;;;-143.57;100.00;65101.44;5034547;28;46133;-46
2022/06/22 03:48:51;;;;;;;;;15.00;13.00;;;;;-143.57;100.00;65101.44;5035121;28;45463;-50
2022/06/22 03:51:24;;;;;;;;;15.50;14.75;;;;;-143.57;100.00;65101.44;5035374;28;45379;-48
2022/06/22 03:54:13;;;;;;;;;13.75;11.50;;;;;-143.57;100.00;65101.44;5068356;27;45533;-47
2022/06/22 03:56:44;;;;;;;;;15.50;14.25;;;;;-143.57;100.00;65101.44;5097925;27;45292;-41
2022/06/22 03:59:10;;;;;;;;;18.50;15.50;;;;;-143.57;100.00;65101.44;5097682;27;45404;-44
2022/06/22 04:01:37;;;;;;;;;15.25;13.25;;;;;-143.57;100.00;65101.44;5098251;27;45440;-49
2022/06/22 04:04:03;;;;;;;;;17.50;13.75;;;;;-143.57;100.00;65101.44;5098664;27;45498;-50
2022/06/22 04:06:32;;;;;;;;;17.67;14.00;;;;;-143.57;100.00;65101.44;5098801;27;46540;-45
2022/06/22 04:08:59;;;;;;;;;15.50;14.25;;;;;-143.57;100.00;65101.44;5099466;27;45337;-47
2022/06/22 04:11:34;;;;;;;;;13.00;13.00;;;;;-143.57;100.00;65101.44;5098068;27;45332;-49
2022/06/22 04:14:15;;;;;;;;;19.25;11.50;;;;;-143.57;100.00;65101.44;5097942;27;45485;-46
2022/06/22 04:16:46;;;;;;;;;12.25;12.25;;;;;-143.57;100.00;65101.44;5098058;27;45514;-48
2022/06/22 04:19:20;;;;;;;;;20.75;15.75;;;;;-143.57;100.00;65101.44;5097557;27;45379;-47
2022/06/22 04:21:51;;;;;;;;;17.25;14.00;;;;;-143.57;100.00;65101.44;5097517;27;45204;-48
2022/06/22 04:24:23;;;;;;;;;15.25;13.50;;;;;-143.57;100.00;65101.44;5097538;27;45459;-48
2022/06/22 04:27:07;;;;;;;;;14.75;14.25;;;;;-143.57;100.00;65101.44;5097261;27;46077;-49
2022/06/22 04:29:40;;;;;;;;;15.25;12.25;;;;;-143.57;100.00;65101.44;5097437;27;45342;-49
2022/06/22 04:32:25;;;;;;;;;17.50;15.25;;;;;-143.57;100.00;65101.44;5097376;27;45248;-45
2022/06/22 04:34:57;;;;;;;;;12.50;12.25;;;;;-143.57;100.00;65101.44;5097603;27;45412;-50
2022/06/22 04:37:37;;;;;;;;;18.50;13.50;;;;;-143.57;100.00;65101.44;5097272;27;46230;-47
2022/06/22 04:40:28;;;;;;;;;17.33;15.00;;;;;-143.57;100.00;65101.44;5097066;27;45212;-49
2022/06/22 04:43:04;;;;;;;;;15.50;12.00;;;;;-143.57;100.00;65101.44;5112025;27;45502;-50
2022/06/22 04:45:31;;;;;;;;;18.00;15.00;;;;;-143.57;100.00;65101.44;5097365;27;45441;-47
2022/06/22 04:48:03;;;;;;;;;19.33;18.00;;;;;-143.57;100.00;65101.44;5097052;27;46248;-46
2022/06/22 04:50:29;;;;;;;;;15.67;14.33;;;;;-143.57;100.00;65101.44;5096970;27;45540;-47
2022/06/22 04:52:59;;;;;;;;;17.00;17.00;;;;;-143.57;100.00;65101.44;5097528;27;45296;-49
2022/06/22 04:55:27;;;;;;;;;15.50;14.25;;;;;-143.57;100.00;65101.44;5097397;27;45641;-47
2022/06/22 04:58:00;;;;;;;;;16.00;15.50;;;;;-143.57;100.00;65101.44;5096944;27;46462;-47
2022/06/22 05:00:30;;;;;;;;;20.33;16.67;;;;;-143.57;100.00;65101.44;5097252;27;45368;-44
2022/06/22 05:03:03;;;;;;;;;18.00;16.33;;;;;-143.57;100.00;65101.44;5097111;27;45429;-49
2022/06/22 05:05:31;;;;;;;;;17.75;16.00;;;;;-143.57;100.00;65101.44;5097092;27;45254;-46
2022/06/22 05:08:11;;;;;;;;;16.00;14.50;;;;;-143.57;100.00;65101.44;5097028;27;46207;-50
2022/06/22 05:10:53;;;;;;;;;12.00;12.00;;;;;-143.57;100.00;65101.44;5096742;27;45400;-48
2022/06/22 05:13:31;;;;;;;;;17.25;13.00;;;;;-143.57;100.00;65101.44;5097057;27;45330;-49
2022/06/22 05:15:59;;;;;;;;;17.75;15.25;;;;;-143.57;100.00;65101.44;5096805;27;45309;-44
2022/06/22 05:18:29;;;;;;;;;16.50;15.00;;;;;-143.57;100.00;65101.44;5096409;27;47155;-50
2022/06/22 05:21:18;;;;;;;;;17.75;15.25;;;;;-143.57;100.00;65101.44;5096922;27;45379;-49
2022/06/22 05:23:51;;;;;;;;;19.00;15.75;;;;;-143.57;100.00;65101.44;5096893;27;45380;-50
2022/06/22 05:26:18;;;;;;;;;17.00;16.00;;;;;-143.57;100.00;65101.44;5096998;27;45364;-49
2022/06/22 05:28:55;;;;;;;;;19.00;15.00;;;;;-143.57;100.00;65101.44;5096500;27;46244;-49
2022/06/22 05:31:36;;;;;;;;;15.75;15.00;;;;;-143.57;100.00;65101.44;5097957;27;45298;-46
2022/06/22 05:34:07;;;;;;;;;16.25;13.25;;;;;-143.57;100.00;65101.44;5100169;27;45304;-46
2022/06/22 05:36:39;;;;;;;;;18.25;15.00;;;;;-143.57;100.00;65101.44;5100431;27;45279;-45
2022/06/22 05:39:05;;;;;;;;;15.75;14.75;;;;;-143.57;100.00;65101.44;5099914;27;46038;-45
2022/06/22 05:41:36;;;;;;;;;14.50;13.25;;;;;-143.57;100.00;65101.44;5100043;27;45402;-47
2022/06/22 05:44:08;;;;;;;;;19.25;16.50;;;;;-143.57;100.00;65101.44;5100170;27;45330;-49
2022/06/22 05:46:34;;;;;;;;;16.25;15.00;;;;;-143.57;100.00;65101.44;5100131;27;45349;-46
2022/06/22 05:48:59;;;;;;;;;13.50;11.50;;;;;-143.57;100.00;65101.44;5099718;27;47357;-44
2022/06/22 05:51:57;;;;;;;;;18.00;16.00;;;;;-143.57;100.00;65101.44;5098475;27;45204;-45
2022/06/22 05:54:33;;;;;;;;;20.00;18.75;;;;;-143.57;100.00;65101.44;5099940;27;45397;-45
2022/06/22 05:57:19;;;;;;;;;14.00;13.50;;;;;-143.57;100.00;65101.44;5099932;27;45363;-48
2022/06/22 05:59:59;;;;;;;;;16.00;16.00;;;;;-143.57;100.00;65101.44;5099573;27;45429;-49
2022/06/22 06:02:50;;;;;;;;;15.75;14.00;;;;;-143.57;100.00;65101.44;5099307;27;45492;-48
2022/06/22 06:05:21;;;;;;;;;19.50;17.00;;;;;-143.57;100.00;65101.44;5099455;27;45305;-48
2022/06/22 06:07:51;;;;;;;;;18.50;17.50;;;;;-143.57;100.00;65101.44;5099682;27;45497;-51
2022/06/22 06:10:25;;;;;;;;;20.75;14.25;;;;;-143.57;100.00;65101.44;5099499;27;46167;-44
2022/06/22 06:13:01;;;;;;;;;18.50;14.50;;;;;-143.57;100.00;65101.44;5099462;27;45489;-45
2022/06/22 06:15:32;;;;;;;;;15.75;15.50;;;;;-143.57;100.00;65101.44;5099418;27;45357;-47
2022/06/22 06:18:00;;;;;;;;;19.25;17.50;;;;;-143.57;100.00;65101.44;5099643;27;45251;-47
2022/06/22 06:20:29;;;;;;;;;19.75;15.50;;;;;-143.57;100.00;65101.44;5099470;27;46228;-42
2022/06/22 06:23:03;;;;;;;;;15.50;14.75;;;;;-143.57;100.00;65101.44;5099077;27;45602;-41
2022/06/22 06:28:26;;;;;;;;;17.50;16.50;;;;;-143.57;100.00;65101.44;5099416;27;45310;-43
2022/06/22 06:31:03;;;;;;;;;16.00;15.00;;;;;-143.57;100.00;65101.44;5099150;27;46367;-46
2022/06/22 06:33:35;;;;;;;;;16.75;13.50;;;;;-143.57;100.00;65101.44;5099076;27;45498;-51
2022/06/22 06:36:21;;;;;;;;;18.50;14.50;;;;;-143.57;100.00;65101.44;5099030;27;45465;-42
2022/06/22 06:39:05;;;;;;;;;15.75;13.50;;;;;-143.57;100.00;65101.44;5099358;27;45371;-47
2022/06/22 06:41:40;;;;;;;;;18.50;15.00;;;;;-143.57;100.00;65101.44;5115004;27;47661;-46
2022/06/22 06:44:18;;;;;;;;;14.50;14.00;;;;;-143.57;100.00;65101.44;5098283;27;45568;-43
2022/06/22 06:46:52;;;;;;;;;19.75;16.50;;;;;-143.57;100.00;65101.44;5099451;27;45421;-45
2022/06/22 06:49:34;;;;;;;;;18.00;15.00;;;;;-143.57;100.00;65101.44;5099437;27;45421;-42
2022/06/22 06:52:20;;;;;;;;;15.75;14.75;;;;;-143.57;100.00;65101.44;5098749;27;45978;-42
2022/06/22 06:55:03;;;;;;;;;16.75;14.75;;;;;-143.57;100.00;65101.44;5098854;27;45334;-43
2022/06/22 06:57:31;;;;;;;;;16.50;16.00;;;;;-143.57;100.00;65101.44;5098838;27;45369;-47
2022/06/22 07:00:00;;;;;;;;;17.67;15.33;;;;;-143.57;100.00;65101.44;5099069;27;45343;-43
2022/06/22 07:02:32;;;;;;;;;22.25;17.75;;;;;-143.57;100.00;65101.44;5097636;27;45247;-45
2022/06/22 07:05:01;;;;;;;;;17.00;14.75;;;;;-143.57;100.00;65101.44;5098437;27;45346;-48
2022/06/22 07:07:33;;;;;;;;;13.75;12.50;;;;;-143.57;100.00;65101.44;5098628;27;45335;-44
2022/06/22 07:10:11;;;;;;;;;18.00;15.25;;;;;-143.57;100.00;65101.44;5098868;27;45500;-43
2022/06/22 07:12:59;;;;;;;;;19.00;18.33;;;;;-143.57;100.00;65101.44;5098110;27;46637;-41
2022/06/22 07:15:32;;;;;;;;;15.50;14.75;;;;;-143.57;100.00;65101.44;5035110;28;45343;-43
2022/06/22 07:18:03;;;;;;;;;16.50;15.00;;;;;-143.57;100.00;65101.44;5018705;28;45432;-46
2022/06/22 07:20:35;;;;;;;;;12.00;12.00;;;;;-143.57;100.00;65101.44;5035538;28;45482;-47
2022/06/22 07:23:12;;;;;;;;;18.00;15.25;;;;;-143.57;100.00;65101.44;5035052;28;46864;-42
2022/06/22 07:25:47;;;;;;;;;15.25;13.50;;;;;-143.57;100.00;65101.44;5035136;28;45531;-42
2022/06/22 07:28:48;;;;;;;;;18.00;16.50;;;;;-143.57;100.00;65101.44;5035425;28;45435;-43
2022/06/22 07:31:22;;;;;;;;;18.75;17.00;;;;;-143.57;100.00;65101.44;5018881;28;45532;-42
2022/06/22 07:33:57;;;;;;;;;13.75;13.75;;;;;-143.57;100.00;65101.44;5034783;28;45493;-43
2022/06/22 07:36:40;;;;;;;;;18.75;16.25;;;;;-143.57;100.00;65101.44;5035110;28;45395;-42
2022/06/22 07:39:05;;;;;;;;;18.00;16.75;;;;;-143.57;100.00;65101.44;5035163;28;45446;-42
2022/06/22 07:41:32;;;;;;;;;18.50;18.50;;;;;-143.57;100.00;65101.44;5035336;28;45398;-42
2022/06/22 07:44:12;;;;;;;;;21.25;14.75;;;;;-143.57;100.00;65101.44;5034864;28;45540;-42
2022/06/22 07:46:50;;;;;;;;;21.00;16.25;;;;;-143.57;100.00;65101.44;5034894;28;45512;-43
2022/06/22 07:49:21;;;;;;;;;15.75;14.00;;;;;-143.57;100.00;65101.44;5035293;28;45411;-48
2022/06/22 07:51:50;;;;;;;;;15.75;15.00;;;;;-143.57;100.00;65101.44;5050256;27;45509;-45
2022/06/22 07:54:40;;;;;;;;;18.00;17.00;;;;;-143.57;100.00;65101.44;5078684;27;46356;-47
2022/06/22 07:57:34;;;;;;;;;18.50;14.50;;;;;-143.57;100.00;65101.44;5097643;27;45536;-49
2022/06/22 08:00:18;;;;;;;;;19.75;15.00;;;;;-143.57;100.00;65101.44;5097615;27;45471;-52
2022/06/22 08:03:03;;;;;;;;;16.75;14.00;;;;;-143.57;100.00;65101.44;5097808;27;45256;-49
2022/06/22 08:05:38;;;;;;;;;16.75;15.25;;;;;-143.57;100.00;65101.44;5097502;27;45326;-53
2022/06/22 08:08:18;;;;;;;;;20.25;17.50;;;;;-143.57;100.00;65101.44;5097717;27;45283;-50
2022/06/22 08:10:50;;;;;;;;;17.00;15.50;;;;;-143.57;100.00;65101.44;5097900;27;45264;-49
2022/06/22 08:13:32;;;;;;;;;16.50;13.75;;;;;-143.57;100.00;65101.44;5097800;27;45460;-51
2022/06/22 08:16:13;;;;;;;;;18.40;15.40;;;;;-143.57;100.00;65101.44;5097463;27;45477;-52
2022/06/22 08:18:38;;;;;;;;;17.60;14.60;;;;;-143.57;100.00;65101.44;5097270;27;45344;-50
2022/06/22 08:21:05;;;;;;;;;14.75;14.75;;;;;-143.57;100.00;65101.44;5097369;27;45299;-50
2022/06/22 08:23:35;;;;;;;;;14.40;12.40;;;;;-143.57;100.00;65101.44;5097678;27;45404;-48
2022/06/22 08:26:04;;;;;;;;;15.60;14.40;;;;;-143.57;100.00;65101.44;5097332;27;46238;-50
2022/06/22 08:28:34;;;;;;;;;19.40;16.00;;;;;-143.57;100.00;65101.44;5097706;27;45505;-46
2022/06/22 08:31:00;;;;;;;;;19.00;18.40;;;;;-143.57;100.00;65101.44;5097352;27;45277;-52
2022/06/22 08:33:39;;;;;;;;;14.50;13.75;;;;;-143.57;100.00;65101.44;5097543;27;45552;-50
2022/06/22 08:36:12;;;;;;;;;14.00;13.00;;;;;-143.57;100.00;65101.44;5097500;27;46118;-44
2022/06/22 08:38:52;;;;;;;;;12.60;12.60;;;;;-143.57;100.00;65101.44;5097539;27;45324;-51
2022/06/22 08:41:39;;;;;;;;;14.00;13.40;;;;;-143.57;100.00;65101.44;5097257;27;45177;-45
2022/06/22 08:44:24;;;;;;;;;13.20;13.00;;;;;-143.57;100.00;65101.44;5097322;27;45523;-53
2022/06/22 08:47:06;;;;;;;;;16.00;15.20;;;;;-143.57;100.00;65101.44;5097239;27;46064;-49
2022/06/22 08:49:55;;;;;;;;;13.20;12.80;;;;;-143.57;100.00;65101.44;5096957;27;45343;-50
2022/06/22 08:52:37;;;;;;;;;12.20;12.20;;;;;-143.57;100.00;65101.44;5097336;27;45447;-53
2022/06/22 08:55:38;;;;;;;;;16.60;15.20;;;;;-143.57;100.00;65101.44;5097250;27;45410;-52
2022/06/22 08:58:30;;;;;;;;;13.40;12.80;;;;;-143.57;100.00;65101.44;5096970;27;46683;-45
2022/06/22 09:01:54;;;;;;;;;17.00;14.00;;;;;-143.57;100.00;65101.44;5096913;27;45395;-52
2022/06/22 09:04:37;;;;;;;;;21.20;15.00;;;;;-143.57;100.00;65101.44;5033470;28;45406;-47
2022/06/22 09:07:27;;;;;;;;;19.40;16.60;;;;;-143.57;100.00;65101.44;5036996;28;45459;-44
2022/06/22 09:10:20;;;;;;;;;14.20;13.20;;;;;-143.57;100.00;65101.44;5037195;28;45511;-45
2022/06/22 09:13:15;;;;;;;;;18.80;14.60;;;;;-143.57;100.00;65101.44;5037401;28;45385;-45
2022/06/22 09:15:55;;;;;;;;;14.00;12.60;;;;;-143.57;100.00;65101.44;5037439;28;46319;-49
2022/06/22 09:18:45;;;;;;;;;14.40;13.80;;;;;-143.57;100.00;65101.44;5037419;28;45438;-51
2022/06/22 09:21:15;;;;;;;;;10.00;10.00;;;;;-143.57;100.00;65101.44;5036794;28;47029;-45
2022/06/22 09:24:05;;;;;;;;;16.40;14.40;;;;;-143.57;100.00;65101.44;5037194;28;45787;-46
2022/06/22 09:26:58;;;;;;;;;19.80;16.40;;;;;-143.57;100.00;65101.44;5037366;28;45438;-46
2022/06/22 09:29:29;;;;;;;;;17.20;16.40;;;;;-143.57;100.00;65101.44;5037255;28;45340;-44
2022/06/22 09:32:15;;;;;;;;;15.80;14.00;;;;;-143.57;100.00;65101.44;5037057;28;46071;-44
2022/06/22 09:35:11;;;;;;;;;17.20;16.20;;;;;-143.57;100.00;65101.44;5065972;27;45491;-49
2022/06/22 09:37:37;;;;;;;;;16.20;14.80;;;;;-143.57;100.00;65101.44;5100244;27;45311;-49
2022/06/22 09:40:17;;;;;;;;;16.40;13.80;;;;;-143.57;100.00;65101.44;5100101;27;45549;-46
2022/06/22 09:43:15;;;;;;;;;17.00;15.40;;;;;-143.57;100.00;65101.44;5099812;27;46073;-47
2022/06/22 09:45:49;;;;;;;;;15.40;15.20;;;;;-143.57;100.00;65101.44;5036643;28;45467;-49
2022/06/22 09:48:35;;;;;;;;;9.60;9.60;;;;;-143.57;100.00;65101.44;5035744;28;45360;-45
2022/06/22 09:51:22;;;;;;;;;19.00;15.20;;;;;-143.57;100.00;65101.44;5036701;28;45366;-43
2022/06/22 09:54:07;;;;;;;;;19.40;16.60;;;;;-143.57;100.00;65101.44;5036666;28;46433;-49
2022/06/22 09:56:50;;;;;;;;;19.40;13.20;;;;;-143.57;100.00;65101.44;5036718;28;45510;-49
2022/06/22 09:59:32;;;;;;;;;17.00;15.40;;;;;-143.57;100.00;65101.44;5035991;28;45482;-51
2022/06/22 10:02:31;;;;;;;;;17.80;14.20;;;;;-143.57;100.00;65101.44;5036818;28;45526;-43
2022/06/22 10:04:59;;;;;;;;;16.00;14.00;;;;;-143.57;100.00;65101.44;5036242;28;46367;-47
2022/06/22 10:07:49;;;;;;;;;17.20;14.00;;;;;-143.57;100.00;65101.44;5035510;28;45382;-50
2022/06/22 10:10:24;;;;;;;;;14.40;13.80;;;;;-143.57;100.00;65101.44;5036322;28;45442;-54
2022/06/22 10:13:11;;;;;;;;;13.60;13.60;;;;;-143.57;100.00;65101.44;5035373;28;45605;-40
2022/06/22 10:16:06;;;;;;;;;16.00;15.00;;;;;-143.57;100.00;65101.44;5036223;28;46127;-53
2022/06/22 10:19:02;;;;;;;;;13.00;13.00;;;;;-143.57;100.00;65101.44;5035814;28;45395;-53
2022/06/22 10:21:45;;;;;;;;;17.40;15.00;;;;;-143.57;100.00;65101.44;5038951;27;45223;-45
2022/06/22 10:24:31;;;;;;;;;13.80;10.40;;;;;-143.57;100.00;65101.44;5099867;27;45384;-53
2022/06/22 10:27:24;;;;;;;;;15.60;15.00;;;;;-143.57;100.00;65101.44;5035842;28;46243;-43
2022/06/22 10:30:19;;;;;;;;;16.20;15.60;;;;;-143.57;100.00;65101.44;5035337;28;45384;-42
2022/06/22 10:32:54;;;;;;;;;16.80;13.20;;;;;-143.57;100.00;65101.44;4996388;28;45453;-45
2022/06/22 10:35:22;;;;;;;;;13.40;12.60;;;;;-143.57;100.00;65101.44;4996558;28;45472;-53
2022/06/22 10:37:57;;;;;;;;;15.80;14.20;;;;;-143.57;100.00;65101.44;4995844;28;45539;-48
2022/06/22 10:46:29;;;;;;;;;13.60;13.00;;;;;-143.57;100.00;65101.44;4996222;28;45369;-41
2022/06/22 10:49:02;;;;;;;;;12.60;10.80;;;;;-143.57;100.00;65101.44;4995683;28;46209;-49
2022/06/22 10:51:55;;;;;;;;;12.40;12.00;;;;;-143.57;100.00;65101.44;4995833;28;45484;-53
2022/06/22 10:54:51;;;;;;;;;12.00;10.40;;;;;-143.57;100.00;65101.44;4996055;28;45427;-43
2022/06/22 10:57:47;;;;;;;;;6.80;6.80;;;;;-143.57;100.00;65101.44;4996144;28;45387;-50
2022/06/22 11:00:22;;;;;;;;;15.40;10.80;;;;;-143.57;100.00;65101.44;4995945;28;46128;-54
2022/06/22 11:02:59;;;;;;;;;11.00;9.40;;;;;-143.57;100.00;65101.44;4996014;28;45393;-41
2022/06/22 11:06:09;;;;;;;;;9.80;9.00;;;;;-143.57;100.00;65101.44;5035677;28;45270;-46
2022/06/22 11:08:48;;;;;;;;;12.00;12.00;;;;;-143.57;100.00;65101.44;4977195;28;45424;-46
2022/06/22 11:11:37;;;;;;;;;10.00;10.00;;;;;-143.57;100.00;65101.44;4995599;28;45564;-54
2022/06/22 11:14:47;;;;;;;;;14.00;14.00;;;;;-143.57;100.00;65101.44;4995577;28;45402;-43
2022/06/22 11:17:33;;;;;;;;;13.60;10.20;;;;;-143.57;100.00;65101.44;4995925;28;45472;-44
2022/06/22 11:20:01;;;;;;;;;13.20;10.00;;;;;-143.57;100.00;65101.44;4995609;28;45646;-42
2022/06/22 11:22:51;;;;;;;;;15.40;11.80;;;;;-143.57;100.00;65101.44;4994788;28;46336;-45
2022/06/22 11:30:48;;;;;;;;;14.00;12.20;;;;;-143.57;100.00;65101.44;4995634;28;45547;-43
2022/06/22 11:31:45;;;;;;;;;13.40;12.40;;;;;-143.57;100.00;65101.44;4995787;28;45386;-45
2022/06/22 11:34:51;;;;;;;;;15.60;13.00;;;;;-143.57;100.00;65101.44;4995484;28;46397;-53
2022/06/22 11:37:57;;;;;;;;;13.60;12.60;;;;;-143.57;100.00;65101.44;4995474;28;45390;-45
2022/06/22 11:40:28;;;;;;;;;12.80;12.80;;;;;-143.57;100.00;65101.44;4937306;28;45539;-44
2022/06/22 11:43:05;;;;;;;;;17.40;12.60;;;;;-143.57;100.00;65101.44;4937161;28;45430;-43
2022/06/22 11:45:54;;;;;;;;;14.40;12.00;;;;;-143.57;100.00;65101.44;4964368;28;46379;-42
2022/06/22 11:48:44;;;;;;;;;15.20;14.20;;;;;-143.57;100.00;65101.44;4975857;28;45447;-45
2022/06/22 11:51:31;;;;;;;;;16.60;12.80;;;;;-143.57;100.00;65101.44;4975649;28;45508;-46
2022/06/22 11:54:38;;;;;;;;;14.80;12.80;;;;;-143.57;100.00;65101.44;4976030;28;45411;-47
2022/06/22 11:57:46;;;;;;;;;14.00;12.60;;;;;-143.57;100.00;65101.44;4917333;28;45645;-49
2022/06/22 12:00:50;;;;;;;;;16.00;15.60;;;;;-143.57;100.00;65101.44;4917425;28;45414;-45
2022/06/22 12:03:40;;;;;;;;;14.80;14.20;;;;;-143.57;100.00;65101.44;4916776;28;45450;-48
2022/06/22 12:06:30;;;;;;;;;15.60;14.20;;;;;-143.57;100.00;65101.44;4917680;28;45524;-46